DKFSF EDLW-EDLW

Flight info

Callsign DKFSF
Flight time 0h 3m
Altitude
Route
Aircraft DISC

Departure

Time 2026-05-07 19:41
Airport Dortmund Airport (EDLW)

Arrival

Time 2026-05-07 19:44
Airport Dortmund Airport (EDLW)
Time Latitude Longitude Altitude Speed Heading
2026-05-07 19:38 51.51530 7.61187 409 ft 0 kts 152°
2026-05-07 19:39 51.51535 7.61159 425 ft 9 kts 320°
2026-05-07 19:39 51.51530 7.60733 421 ft 56 kts 267°
2026-05-07 19:40 51.51678 7.60719 418 ft 50 kts 63°
2026-05-07 19:40 51.51984 7.61538 412 ft 120 kts 51°
2026-05-07 19:40 51.52490 7.62715 727 ft 133 kts 39°
2026-05-07 19:40 51.53452 7.63453 832 ft 165 kts 352°
2026-05-07 19:41 51.54414 7.62478 1423 ft 167 kts 292°
2026-05-07 19:41 51.54328 7.60558 1806 ft 190 kts 249°
2026-05-07 19:41 51.53616 7.58670 2320 ft 197 kts 236°
2026-05-07 19:41 51.52940 7.56893 2608 ft 204 kts 234°
2026-05-07 19:42 51.51372 7.57056 1193 ft 271 kts 163°
2026-05-07 19:42 51.50699 7.55458 2420 ft 215 kts 257°
2026-05-07 19:42 51.50511 7.53005 2817 ft 208 kts 266°
2026-05-07 19:42 51.50357 7.50463 1779 ft 260 kts 249°
2026-05-07 19:43 51.49175 7.49639 2978 ft 167 kts 144°
2026-05-07 19:43 51.48538 7.51050 2248 ft 177 kts 119°
2026-05-07 19:43 51.48651 7.52991 1173 ft 184 kts 84°
2026-05-07 19:43 51.49231 7.54629 1089 ft 128 kts 54°
2026-05-07 19:44 51.49743 7.55749 1167 ft 134 kts 59°
2026-05-07 19:44 51.50249 7.57017 1087 ft 121 kts 39°
2026-05-07 19:44 51.50863 7.56810 1399 ft 105 kts 274°
2026-05-07 19:44 51.50697 7.56831 1208 ft 44 kts 86°
2026-05-07 19:45 51.50749 7.57546 978 ft 97 kts 87°
2026-05-07 19:45 51.50897 7.58561 633 ft 93 kts 60°
2026-05-07 19:45 51.51169 7.59305 718 ft 91 kts 60°
2026-05-07 19:45 51.51548 7.60412 435 ft 127 kts 60°
2026-05-07 19:46 51.51910 7.61460 418 ft 87 kts 61°
2026-05-07 19:46 51.52142 7.62115 409 ft 45 kts 54°
2026-05-07 19:46 51.52505 7.62623 402 ft 102 kts 18°
2026-05-07 19:46 51.53220 7.62535 905 ft 105 kts 324°
2026-05-07 19:47 51.53632 7.61358 1091 ft 141 kts 272°
2026-05-07 19:47 51.53321 7.59880 903 ft 146 kts 238°
2026-05-07 19:47 51.52797 7.58590 775 ft 121 kts 239°
2026-05-07 19:47 51.52376 7.57545 899 ft 108 kts 240°
2026-05-07 19:48 51.51807 7.56802 949 ft 124 kts 185°
2026-05-07 19:48 51.50961 7.57163 1006 ft 118 kts 161°
2026-05-07 19:48 51.50661 7.57958 1348 ft 100 kts 67°
2026-05-07 19:48 51.51070 7.59089 561 ft 119 kts 60°
2026-05-07 19:49 51.51430 7.60072 437 ft 92 kts 60°
2026-05-07 19:49 51.51715 7.60883 415 ft 72 kts 62°
2026-05-07 19:49 51.51794 7.61248 419 ft 2 kts 78°
2026-05-07 19:49 51.51787 7.61228 554 ft 0 kts 16°
2026-05-07 19:50 51.51911 7.62006 811 ft 116 kts 238°
2026-05-07 19:50 51.51587 7.61206 427 ft 62 kts 245°
2026-05-07 19:50 51.51402 7.60795 435 ft 63 kts 232°
2026-05-07 19:50 51.51232 7.60594 481 ft 1 kts 185°